| time (UTC) | temp F | wind direction | speed MPH | gust MPH | rain 1hr in | rain 24hr in | rain mn in | humidity % | barometer mb |
| 20260508135005 | 55 | 156 | 5.0 | 7.0 | 0.00 | 0.00 | 0.00 | 100 | 1012.7 |
| 20260508134004 | 53 | 159 | 5.0 | 7.0 | 0.00 | 0.00 | 0.00 | 100 | 1012.7 |
| 20260508131504 | 51 | 120 | 5.0 | 7.0 | 0.00 | 0.00 | 0.00 | 100 | 1012.9 |
| 20260508131004 | 50 | 110 | 5.0 | 7.0 | 0.00 | 0.00 | 0.00 | 100 | 1012.9 |
| 20260508130505 | 50 | 95 | 5.0 | 7.0 | 0.00 | 0.00 | 0.00 | 100 | 1012.8 |
| 20260508125506 | 49 | 98 | 3.0 | 6.0 | 0.00 | 0.00 | 0.00 | 100 | 1013.0 |
| 20260508125005 | 48 | 94 | 4.0 | 6.0 | 0.00 | 0.00 | 0.00 | 100 | 1012.9 |
| 20260508124504 | 48 | 93 | 4.0 | 6.0 | 0.00 | 0.00 | 0.00 | 100 | 1012.9 |
| 20260508123504 | 47 | 61 | 2.0 | 5.0 | 0.00 | 0.00 | 0.00 | 100 | 1013.0 |
| 20260508123004 | 47 | 78 | 3.0 | 5.0 | 0.00 | 0.00 | 0.00 | 100 | 1012.9 |
| 20260508122504 | 46 | 77 | 3.0 | 3.0 | 0.00 | 0.00 | 0.00 | 100 | 1012.8 |
| 20260508115504 | 42 | 87 | 1.0 | 3.0 | 0.00 | 0.00 | 0.00 | 100 | 1012.9 |
| 20260508114505 | 39 | 49 | 3.0 | 3.0 | 0.00 | 0.00 | 0.00 | 100 | 1012.7 |
| 20260508114005 | 40 | 86 | 2.0 | 2.0 | 0.00 | 0.00 | 0.00 | 100 | 1012.8 |
| 20260508112004 | 40 | 86 | 0.0 | 1.0 | 0.00 | 0.00 | 0.00 | 100 | 1012.9 |
| 20260508111004 | 41 | 86 | 0.0 | 1.0 | 0.00 | 0.00 | 0.00 | 100 | 1012.7 |
| 20260508110005 | 41 | 86 | 2.0 | 3.0 | 0.00 | 0.00 | 0.00 | 100 | 1012.6 |
| 20260508105504 | 42 | 100 | 2.0 | 3.0 | 0.00 | 0.00 | 0.00 | 100 | 1012.6 |
| 20260508105004 | 42 | 75 | 1.0 | 2.0 | 0.00 | 0.00 | 0.00 | 100 | 1012.6 |
| 20260508104504 | 42 | 75 | 1.0 | 1.0 | 0.00 | 0.00 | 0.00 | 100 | 1012.5 |
| 20260508104004 | 42 | 75 | 1.0 | 2.0 | 0.00 | 0.00 | 0.00 | 100 | 1012.5 |
| 20260508103504 | 42 | 67 | 2.0 | 2.0 | 0.00 | 0.00 | 0.00 | 100 | 1012.7 |
| 20260508102504 | 43 | 78 | 1.0 | 2.0 | 0.00 | 0.00 | 0.00 | 100 | 1012.8 |
| 20260508102004 | 43 | 80 | 2.0 | 3.0 | 0.00 | 0.00 | 0.00 | 100 | 1012.8 |
| 20260508101504 | 43 | 96 | 2.0 | 3.0 | 0.00 | 0.00 | 0.00 | 100 | 1012.8 |
| 20260508101005 | 43 | 112 | 2.0 | 3.0 | 0.00 | 0.00 | 0.00 | 100 | 1012.7 |
| 20260508100004 | 44 | 76 | 5.0 | 7.0 | 0.00 | 0.00 | 0.00 | 100 | 1012.4 |
| 20260508095004 | 43 | 63 | 5.0 | 6.0 | 0.00 | 0.00 | 0.00 | 100 | 1012.5 |
| 20260508094504 | 43 | 64 | 5.0 | 8.0 | 0.00 | 0.00 | 0.00 | 100 | 1012.6 |
| 20260508093504 | 44 | 78 | 5.0 | 7.0 | 0.00 | 0.00 | 0.00 | 100 | 1012.6 |
| 20260508092504 | 44 | 80 | 5.0 | 8.0 | 0.00 | 0.00 | 0.00 | 100 | 1012.6 |
| 20260508092004 | 44 | 84 | 5.0 | 7.0 | 0.00 | 0.00 | 0.00 | 100 | 1012.8 |
| 20260508091004 | 45 | 81 | 5.0 | 9.0 | 0.00 | 0.00 | 0.00 | 100 | 1012.7 |
| 20260508085504 | 45 | 72 | 7.0 | 9.0 | 0.00 | 0.00 | 0.00 | 100 | 1012.8 |
| 20260508085004 | 45 | 89 | 6.0 | 9.0 | 0.00 | 0.00 | 0.00 | 100 | 1012.9 |
| 20260508081504 | 46 | 77 | 7.0 | 9.0 | 0.00 | 0.00 | 0.00 | 100 | 1013.1 |
| 20260508081004 | 47 | 87 | 6.0 | 10.0 | 0.00 | 0.00 | 0.00 | 100 | 1013.1 |
| 20260508080004 | 47 | 96 | 6.0 | 9.0 | 0.00 | 0.00 | 0.00 | 100 | 1013.3 |
| 20260508075004 | 47 | 83 | 8.0 | 10.0 | 0.00 | 0.00 | 0.00 | 100 | 1013.4 |
| 20260508074504 | 47 | 85 | 6.0 | 9.0 | 0.00 | 0.00 | 0.00 | 100 | 1013.4 |
| 20260508073504 | 47 | 75 | 7.0 | 10.0 | 0.00 | 0.00 | 0.00 | 100 | 1013.5 |
| 20260508072004 | 48 | 80 | 7.0 | 12.0 | 0.00 | 0.00 | 0.00 | 100 | 1013.7 |
| 20260508070504 | 48 | 77 | 4.0 | 7.0 | 0.00 | 0.00 | 0.00 | 100 | 1014.0 |
| 20260508065004 | 48 | 66 | 5.0 | 8.0 | 0.00 | 0.00 | 0.00 | 100 | 1014.1 |
| 20260508064504 | 48 | 68 | 4.0 | 6.0 | 0.00 | 0.00 | 0.00 | 100 | 1014.1 |
| 20260508061504 | 49 | 61 | 5.0 | 7.0 | 0.00 | 0.00 | 0.00 | 100 | 1014.4 |
| 20260508061004 | 49 | 59 | 5.0 | 9.0 | 0.00 | 0.00 | 0.00 | 100 | 1014.5 |
| 20260508060504 | 49 | 55 | 5.0 | 6.0 | 0.00 | 0.00 | 0.00 | 100 | 1014.4 |
| 20260508055504 | 49 | 51 | 5.0 | 5.0 | 0.00 | 0.00 | 0.00 | 100 | 1014.5 |
| 20260508055003 | 50 | 64 | 5.0 | 6.0 | 0.00 | 0.00 | 0.00 | 100 | 1014.6 |
| 20260508054504 | 50 | 48 | 4.0 | 5.0 | 0.00 | 0.00 | 0.00 | 100 | 1014.6 |
| 20260508053004 | 49 | 39 | 4.0 | 5.0 | 0.00 | 0.00 | 0.00 | 100 | 1014.6 |
| 20260508052504 | 49 | 33 | 5.0 | 6.0 | 0.00 | 0.00 | 0.00 | 100 | 1014.6 |
| 20260508051504 | 48 | 37 | 2.0 | 3.0 | 0.00 | 0.00 | 0.00 | 100 | 1014.6 |
| 20260508051004 | 48 | 31 | 3.0 | 5.0 | 0.00 | 0.00 | 0.00 | 100 | 1014.5 |
| 20260508050504 | 48 | 37 | 4.0 | 5.0 | 0.00 | 0.00 | 0.00 | 100 | 1014.5 |
| 20260508050004 | 47 | 40 | 4.0 | 6.0 | 0.00 | 0.00 | 0.00 | 100 | 1014.4 |
| 20260508045004 | 50 | 39 | 2.0 | 3.0 | 0.00 | 0.00 | 0.00 | 100 | 1014.2 |
| 20260508044503 | 50 | 39 | 2.0 | 3.0 | 0.00 | 0.00 | 0.00 | 100 | 1014.3 |
| 20260508044004 | 50 | 46 | 3.0 | 3.0 | 0.00 | 0.00 | 0.00 | 100 | 1014.3 |
| 20260508042503 | 47 | 14 | 2.0 | 3.0 | 0.00 | 0.00 | 0.00 | 100 | 1014.4 |
| 20260508041004 | 48 | 29 | 2.0 | 3.0 | 0.00 | 0.00 | 0.00 | 100 | 1014.3 |
| 20260508040006 | 48 | 16 | 2.0 | 3.0 | 0.00 | 0.00 | 0.00 | 100 | 1014.2 |
| 20260508035006 | 48 | 4 | 1.0 | 3.0 | 0.00 | 0.00 | 0.00 | 100 | 1014.2 |
| 20260508034506 | 48 | 59 | 0.0 | 2.0 | 0.00 | 0.00 | 0.00 | 100 | 1014.2 |
| 20260508034006 | 48 | 59 | 0.0 | 1.0 | 0.00 | 0.00 | 0.00 | 100 | 1014.0 |
| 20260508033006 | 49 | 59 | 0.0 | 1.0 | 0.00 | 0.00 | 0.00 | 100 | 1013.8 |
| 20260508032005 | 51 | 59 | 1.0 | 2.0 | 0.00 | 0.00 | 0.00 | 100 | 1013.7 |
| 20260508031005 | 53 | 59 | 0.0 | 2.0 | 0.00 | 0.00 | 0.00 | 100 | 1013.7 |
| 20260508025006 | 53 | 140 | 0.0 | 1.0 | 0.00 | 0.00 | 0.00 | 100 | 1013.5 |
| 20260508024506 | 54 | 146 | 1.0 | 2.0 | 0.00 | 0.00 | 0.00 | 100 | 1013.5 |
| 20260508022006 | 55 | 137 | 1.0 | 2.0 | 0.00 | 0.00 | 0.00 | 100 | 1013.1 |
| 20260508021506 | 56 | 84 | 1.0 | 2.0 | 0.00 | 0.00 | 0.00 | 100 | 1013.0 |
| 20260508021005 | 56 | 31 | 1.0 | 2.0 | 0.00 | 0.00 | 0.00 | 100 | 1012.9 |
| 20260508020006 | 57 | 305 | 0.0 | 2.0 | 0.00 | 0.00 | 0.00 | 100 | 1012.8 |
| 20260508015506 | 57 | 305 | 0.0 | 1.0 | 0.00 | 0.00 | 0.00 | 100 | 1012.7 |
| 20260508015005 | 58 | 294 | 1.0 | 1.0 | 0.00 | 0.00 | 0.00 | 100 | 1012.6 |
| 20260508014505 | 58 | 294 | 0.0 | 2.0 | 0.00 | 0.00 | 0.00 | 100 | 1012.6 |
| 20260508014006 | 59 | 294 | 0.0 | 2.0 | 0.00 | 0.00 | 0.00 | 100 | 1012.6 |
| 20260508013506 | 60 | 294 | 0.0 | 1.0 | 0.00 | 0.00 | 0.00 | 100 | 1012.5 |
| 20260508013005 | 61 | 249 | 0.0 | 2.0 | 0.00 | 0.00 | 0.00 | 100 | 1012.5 |
| 20260508012505 | 61 | 249 | 0.0 | 0.0 | 0.00 | 0.00 | 0.00 | 100 | 1012.5 |
| 20260508012005 | 61 | 249 | 0.0 | 2.0 | 0.00 | 0.00 | 0.00 | 100 | 1012.6 |
| 20260508011505 | 62 | 249 | 1.0 | 2.0 | 0.00 | 0.00 | 0.00 | 100 | 1012.5 |
| 20260508011005 | 62 | 249 | 1.0 | 2.0 | 0.00 | 0.00 | 0.00 | 100 | 1012.2 |
| 20260508010005 | 63 | 267 | 1.0 | 3.0 | 0.00 | 0.00 | 0.00 | 100 | 1012.2 |
| 20260508005505 | 63 | 270 | 2.0 | 3.0 | 0.00 | 0.00 | 0.00 | 100 | 1012.1 |
| 20260508004005 | 63 | 262 | 2.0 | 3.0 | 0.00 | 0.00 | 0.00 | 100 | 1012.1 |
| 20260508003506 | 63 | 271 | 2.0 | 3.0 | 0.00 | 0.00 | 0.00 | 100 | 1012.0 |
| 20260508001005 | 64 | 284 | 8.0 | 12.0 | 0.00 | 0.00 | 0.00 | 100 | 1012.0 |
| 20260508000505 | 64 | 284 | 8.0 | 12.0 | 0.00 | 0.00 | 0.00 | 100 | 1012.1 |
| 20260508000006 | 64 | 269 | 7.0 | 12.0 | 0.00 | 0.00 | 0.00 | 100 | 1012.0 |
| 20260507235505 | 64 | 259 | 7.0 | 12.0 | 0.00 | 0.00 | 0.00 | 100 | 1012.0 |
| 20260507234505 | 65 | 275 | 10.0 | 14.0 | 0.00 | 0.00 | 0.00 | 100 | 1012.2 |
| 20260507234005 | 65 | 266 | 10.0 | 16.0 | 0.00 | 0.00 | 0.00 | 100 | 1012.1 |
| 20260507233505 | 65 | 264 | 7.0 | 12.0 | 0.00 | 0.00 | 0.00 | 100 | 1012.1 |
| 20260507232505 | 65 | 263 | 9.0 | 15.0 | 0.00 | 0.00 | 0.00 | 100 | 1012.1 |
| 20260507232005 | 66 | 259 | 12.0 | 16.0 | 0.00 | 0.00 | 0.00 | 100 | 1012.0 |
| 20260507231505 | 66 | 268 | 11.0 | 18.0 | 0.00 | 0.00 | 0.00 | 100 | 1012.1 |
| 20260507230005 | 66 | 264 | 16.0 | 25.0 | 0.00 | 0.00 | 0.00 | 100 | 1012.0 |
| 20260507224505 | 66 | 218 | 10.0 | 16.0 | 0.00 | 0.00 | 0.00 | 100 | 1012.3 |
| 20260507223006 | 66 | 244 | 13.0 | 18.0 | 0.00 | 0.00 | 0.00 | 100 | 1012.3 |
| 20260507220505 | 65 | 233 | 12.0 | 20.0 | 0.00 | 0.00 | 0.00 | 100 | 1012.5 |
| 20260507220005 | 65 | 240 | 13.0 | 20.0 | 0.00 | 0.00 | 0.00 | 100 | 1012.2 |
| 20260507215505 | 65 | 236 | 11.0 | 18.0 | 0.00 | 0.00 | 0.00 | 100 | 1012.4 |
| 20260507215005 | 66 | 242 | 12.0 | 21.0 | 0.00 | 0.00 | 0.00 | 100 | 1012.5 |
| 20260507214505 | 66 | 263 | 13.0 | 18.0 | 0.00 | 0.00 | 0.00 | 100 | 1012.4 |
| 20260507214005 | 66 | 262 | 14.0 | 20.0 | 0.00 | 0.00 | 0.00 | 100 | 1012.4 |
| 20260507213505 | 66 | 243 | 14.0 | 20.0 | 0.00 | 0.00 | 0.00 | 100 | 1012.4 |
| 20260507213005 | 65 | 246 | 8.0 | 14.0 | 0.00 | 0.00 | 0.00 | 100 | 1012.5 |
| 20260507212505 | 67 | 249 | 13.0 | 17.0 | 0.00 | 0.00 | 0.00 | 100 | 1012.4 |
| 20260507212005 | 68 | 242 | 14.0 | 20.0 | 0.00 | 0.00 | 0.00 | 100 | 1012.5 |
| 20260507211005 | 67 | 250 | 9.0 | 17.0 | 0.00 | 0.00 | 0.00 | 100 | 1012.4 |
| 20260507205005 | 66 | 267 | 13.0 | 18.0 | 0.00 | 0.00 | 0.00 | 100 | 1012.7 |
| 20260507204005 | 65 | 237 | 12.0 | 18.0 | 0.00 | 0.00 | 0.00 | 100 | 1012.7 |
| 20260507202005 | 65 | 242 | 14.0 | 29.0 | 0.00 | 0.00 | 0.00 | 100 | 1013.0 |
| 20260507201504 | 65 | 264 | 16.0 | 22.0 | 0.00 | 0.00 | 0.00 | 100 | 1013.0 |
| 20260507200005 | 62 | 248 | 7.0 | 18.0 | 0.00 | 0.00 | 0.00 | 100 | 1013.2 |
| 20260507195005 | 61 | 252 | 7.0 | 13.0 | 0.00 | 0.00 | 0.00 | 100 | 1013.4 |
| 20260507194504 | 61 | 266 | 12.0 | 16.0 | 0.00 | 0.00 | 0.00 | 100 | 1013.4 |
| 20260507194004 | 62 | 269 | 14.0 | 20.0 | 0.00 | 0.00 | 0.00 | 100 | 1013.2 |
| 20260507193005 | 63 | 251 | 12.0 | 20.0 | 0.00 | 0.00 | 0.00 | 100 | 1013.3 |
| 20260507192005 | 63 | 238 | 14.0 | 23.0 | 0.00 | 0.00 | 0.00 | 100 | 1013.4 |
| 20260507191005 | 64 | 242 | 17.0 | 26.0 | 0.00 | 0.00 | 0.00 | 100 | 1013.3 |
| 20260507190505 | 65 | 266 | 16.0 | 20.0 | 0.00 | 0.00 | 0.00 | 100 | 1013.3 |
| 20260507183005 | 61 | 254 | 10.0 | 20.0 | 0.00 | 0.00 | 0.00 | 100 | 1013.6 |
| 20260507181505 | 61 | 232 | 10.0 | 16.0 | 0.00 | 0.00 | 0.00 | 100 | 1013.7 |
| 20260507181005 | 61 | 227 | 12.0 | 15.0 | 0.00 | 0.00 | 0.00 | 100 | 1013.8 |
| 20260507180005 | 63 | 265 | 12.0 | 17.0 | 0.00 | 0.00 | 0.00 | 100 | 1013.9 |
| 20260507175504 | 62 | 263 | 13.0 | 20.0 | 0.00 | 0.00 | 0.00 | 100 | 1013.9 |
| 20260507174505 | 62 | 236 | 10.0 | 21.0 | 0.00 | 0.00 | 0.00 | 100 | 1014.1 |
| 20260507174005 | 62 | 241 | 14.0 | 20.0 | 0.00 | 0.00 | 0.00 | 100 | 1014.2 |
| 20260507173505 | 62 | 256 | 17.0 | 22.0 | 0.00 | 0.00 | 0.00 | 100 | 1014.3 |
| 20260507173005 | 62 | 257 | 14.0 | 18.0 | 0.00 | 0.00 | 0.00 | 100 | 1014.4 |
| 20260507172005 | 61 | 206 | 9.0 | 20.0 | 0.00 | 0.00 | 0.00 | 100 | 1014.6 |
| 20260507170504 | 60 | 219 | 16.0 | 25.0 | 0.00 | 0.00 | 0.00 | 100 | 1014.7 |
| 20260507170005 | 60 | 224 | 7.0 | 20.0 | 0.00 | 0.00 | 0.00 | 100 | 1014.7 |
| 20260507165504 | 59 | 246 | 15.0 | 22.0 | 0.00 | 0.00 | 0.00 | 100 | 1014.7 |
| 20260507164505 | 60 | 236 | 14.0 | 22.0 | 0.00 | 0.00 | 0.00 | 100 | 1014.8 |
| 20260507163504 | 60 | 207 | 13.0 | 20.0 | 0.00 | 0.00 | 0.00 | 100 | 1014.9 |
| 20260507163004 | 60 | 244 | 15.0 | 23.0 | 0.00 | 0.00 | 0.00 | 100 | 1014.9 |
| 20260507161005 | 58 | 261 | 13.0 | 23.0 | 0.00 | 0.00 | 0.00 | 100 | 1014.9 |
| 20260507160504 | 58 | 247 | 12.0 | 16.0 | 0.00 | 0.00 | 0.00 | 100 | 1014.9 |
| 20260507152504 | 56 | 247 | 12.0 | 17.0 | 0.00 | 0.00 | 0.00 | 100 | 1015.2 |
| 20260507151005 | 56 | 222 | 11.0 | 14.0 | 0.00 | 0.00 | 0.00 | 100 | 1015.3 |
| 20260507150504 | 56 | 224 | 6.0 | 12.0 | 0.00 | 0.00 | 0.00 | 100 | 1015.4 |
| 20260507150005 | 56 | 236 | 10.0 | 18.0 | 0.00 | 0.00 | 0.00 | 100 | 1015.4 |
| 20260507145005 | 56 | 233 | 7.0 | 12.0 | 0.00 | 0.00 | 0.00 | 100 | 1015.6 |
| 20260507143505 | 54 | 247 | 10.0 | 15.0 | 0.00 | 0.00 | 0.00 | 100 | 1015.7 |
| 20260507142505 | 53 | 199 | 10.0 | 17.0 | 0.00 | 0.00 | 0.00 | 100 | 1016.2 |
| 20260507142004 | 52 | 197 | 7.0 | 14.0 | 0.00 | 0.00 | 0.00 | 100 | 1016.2 |
| 20260507141504 | 52 | 208 | 10.0 | 16.0 | 0.00 | 0.00 | 0.00 | 100 | 1016.2 |
| 20260507141004 | 52 | 212 | 9.0 | 15.0 | 0.00 | 0.00 | 0.00 | 100 | 1016.1 |
| 20260507140005 | 52 | 192 | 6.0 | 13.0 | 0.00 | 0.00 | 0.00 | 100 | 1016.1 |